sensor_id;sensor_type;location;lat;lon;timestamp;P1;durP1;ratioP1;P2;durP2;ratioP2
62457;SDS011;48509;52.122;5.250;2023-03-12T00:02:00;14.7;;;7.7;;
62457;SDS011;48509;52.122;5.250;2023-03-12T00:03:38;13.3;;;7.5;;
62457;SDS011;48509;52.122;5.250;2023-03-12T00:05:14;11.8;;;7.5;;
62457;SDS011;48509;52.122;5.250;2023-03-12T00:08:27;16.3;;;7.9;;
62457;SDS011;48509;52.122;5.250;2023-03-12T00:10:04;13.8;;;7.5;;
62457;SDS011;48509;52.122;5.250;2023-03-12T00:11:41;12.6;;;7.3;;
62457;SDS011;48509;52.122;5.250;2023-03-12T00:13:17;12.5;;;7.7;;
62457;SDS011;48509;52.122;5.250;2023-03-12T00:16:29;10.6;;;6.5;;
62457;SDS011;48509;52.122;5.250;2023-03-12T00:18:07;11.4;;;7.0;;
62457;SDS011;48509;52.122;5.250;2023-03-12T00:19:43;16.11;;;9.21;;
62457;SDS011;48509;52.122;5.250;2023-03-12T00:22:57;16.5;;;8.1;;
62457;SDS011;48509;52.122;5.250;2023-03-12T00:24:34;14.3;;;7.3;;
62457;SDS011;48509;52.122;5.250;2023-03-12T00:26:11;14.7;;;7.7;;
62457;SDS011;48509;52.122;5.250;2023-03-12T00:29:24;13.7;;;8.31;;
62457;SDS011;48509;52.122;5.250;2023-03-12T00:31:01;11.3;;;7.9;;
62457;SDS011;48509;52.122;5.250;2023-03-12T00:32:38;13.2;;;7.6;;
62457;SDS011;48509;52.122;5.250;2023-03-12T00:34:14;11.1;;;7.8;;
62457;SDS011;48509;52.122;5.250;2023-03-12T00:37:27;17.41;;;8.1;;
62457;SDS011;48509;52.122;5.250;2023-03-12T00:39:03;11.4;;;6.9;;
62457;SDS011;48509;52.122;5.250;2023-03-12T00:40:39;11.7;;;8.1;;
62457;SDS011;48509;52.122;5.250;2023-03-12T00:43:52;12.8;;;7.6;;
62457;SDS011;48509;52.122;5.250;2023-03-12T00:45:29;13.0;;;7.5;;
62457;SDS011;48509;52.122;5.250;2023-03-12T00:47:05;14.5;;;7.5;;
62457;SDS011;48509;52.122;5.250;2023-03-12T00:50:19;15.9;;;7.4;;
62457;SDS011;48509;52.122;5.250;2023-03-12T00:51:56;12.8;;;7.5;;
62457;SDS011;48509;52.122;5.250;2023-03-12T00:53:32;12.0;;;7.3;;
62457;SDS011;48509;52.122;5.250;2023-03-12T00:55:08;11.9;;;7.2;;
62457;SDS011;48509;52.122;5.250;2023-03-12T00:58:21;13.9;;;7.8;;
62457;SDS011;48509;52.122;5.250;2023-03-12T00:59:59;16.2;;;8.4;;
62457;SDS011;48509;52.122;5.250;2023-03-12T01:01:35;12.6;;;7.3;;
62457;SDS011;48509;52.122;5.250;2023-03-12T01:04:48;14.9;;;8.9;;
62457;SDS011;48509;52.122;5.250;2023-03-12T01:06:24;12.1;;;7.8;;
62457;SDS011;48509;52.122;5.250;2023-03-12T01:08:01;16.3;;;8.5;;
62457;SDS011;48509;52.122;5.250;2023-03-12T01:11:15;14.0;;;7.7;;
62457;SDS011;48509;52.122;5.250;2023-03-12T01:12:53;12.5;;;7.5;;
62457;SDS011;48509;52.122;5.250;2023-03-12T01:14:30;16.4;;;8.1;;
62457;SDS011;48509;52.122;5.250;2023-03-12T01:16:06;14.7;;;8.1;;
62457;SDS011;48509;52.122;5.250;2023-03-12T01:19:19;13.6;;;8.2;;
62457;SDS011;48509;52.122;5.250;2023-03-12T01:20:55;12.8;;;8.4;;
62457;SDS011;48509;52.122;5.250;2023-03-12T01:22:31;14.2;;;7.9;;
62457;SDS011;48509;52.122;5.250;2023-03-12T01:25:46;13.8;;;7.6;;
62457;SDS011;48509;52.122;5.250;2023-03-12T01:27:22;12.8;;;7.8;;
62457;SDS011;48509;52.122;5.250;2023-03-12T01:28:58;17.11;;;8.4;;
62457;SDS011;48509;52.122;5.250;2023-03-12T01:32:11;13.9;;;8.2;;
62457;SDS011;48509;52.122;5.250;2023-03-12T01:33:49;14.8;;;8.5;;
62457;SDS011;48509;52.122;5.250;2023-03-12T01:35:26;13.1;;;8.1;;
62457;SDS011;48509;52.122;5.250;2023-03-12T01:37:02;14.2;;;8.1;;
62457;SDS011;48509;52.122;5.250;2023-03-12T01:40:15;14.1;;;7.8;;
62457;SDS011;48509;52.122;5.250;2023-03-12T01:41:56;14.0;;;8.4;;
62457;SDS011;48509;52.122;5.250;2023-03-12T01:43:33;13.1;;;7.8;;
62457;SDS011;48509;52.122;5.250;2023-03-12T01:48:50;15.9;;;8.4;;
62457;SDS011;48509;52.122;5.250;2023-03-12T01:50:34;16.11;;;7.7;;
62457;SDS011;48509;52.122;5.250;2023-03-12T01:52:12;14.3;;;7.8;;
62457;SDS011;48509;52.122;5.250;2023-03-12T01:53:52;14.3;;;8.4;;
62457;SDS011;48509;52.122;5.250;2023-03-12T01:57:10;14.9;;;8.5;;
62457;SDS011;48509;52.122;5.250;2023-03-12T01:58:53;13.0;;;7.3;;
62457;SDS011;48509;52.122;5.250;2023-03-12T02:00:33;16.7;;;8.5;;
62457;SDS011;48509;52.122;5.250;2023-03-12T02:02:10;16.5;;;8.81;;
62457;SDS011;48509;52.122;5.250;2023-03-12T02:05:29;15.0;;;8.0;;
62457;SDS011;48509;52.122;5.250;2023-03-12T02:07:12;14.6;;;8.0;;
62457;SDS011;48509;52.122;5.250;2023-03-12T02:08:51;11.4;;;7.2;;
62457;SDS011;48509;52.122;5.250;2023-03-12T02:10:28;13.7;;;7.5;;
62457;SDS011;48509;52.122;5.250;2023-03-12T02:13:42;13.8;;;7.5;;
62457;SDS011;48509;52.122;5.250;2023-03-12T02:15:19;13.9;;;8.2;;
62457;SDS011;48509;52.122;5.250;2023-03-12T02:16:56;12.2;;;7.6;;
62457;SDS011;48509;52.122;5.250;2023-03-12T02:20:12;14.2;;;7.4;;
62457;SDS011;48509;52.122;5.250;2023-03-12T02:21:54;13.2;;;7.6;;
62457;SDS011;48509;52.122;5.250;2023-03-12T02:23:34;11.7;;;7.2;;
62457;SDS011;48509;52.122;5.250;2023-03-12T02:25:20;14.5;;;7.8;;
62457;SDS011;48509;52.122;5.250;2023-03-12T02:28:41;13.3;;;7.3;;
62457;SDS011;48509;52.122;5.250;2023-03-12T02:30:18;12.0;;;6.5;;
62457;SDS011;48509;52.122;5.250;2023-03-12T02:31:56;11.1;;;6.6;;
62457;SDS011;48509;52.122;5.250;2023-03-12T02:33:35;17.61;;;7.6;;
62457;SDS011;48509;52.122;5.250;2023-03-12T02:36:50;11.3;;;6.9;;
62457;SDS011;48509;52.122;5.250;2023-03-12T02:38:31;14.4;;;7.4;;
62457;SDS011;48509;52.122;5.250;2023-03-12T02:40:14;12.4;;;6.8;;
62457;SDS011;48509;52.122;5.250;2023-03-12T02:41:57;15.7;;;7.3;;
62457;SDS011;48509;52.122;5.250;2023-03-12T02:45:12;13.1;;;6.5;;
62457;SDS011;48509;52.122;5.250;2023-03-12T02:46:50;16.3;;;6.6;;
62457;SDS011;48509;52.122;5.250;2023-03-12T02:48:29;11.3;;;5.4;;
62457;SDS011;48509;52.122;5.250;2023-03-12T02:51:44;12.3;;;5.9;;
62457;SDS011;48509;52.122;5.250;2023-03-12T02:53:22;15.1;;;6.0;;
62457;SDS011;48509;52.122;5.250;2023-03-12T02:54:58;11.7;;;6.0;;
62457;SDS011;48509;52.122;5.250;2023-03-12T02:56:34;10.21;;;6.2;;
62457;SDS011;48509;52.122;5.250;2023-03-12T02:59:47;16.0;;;6.3;;
62457;SDS011;48509;52.122;5.250;2023-03-12T03:01:23;11.6;;;6.1;;
62457;SDS011;48509;52.122;5.250;2023-03-12T03:03:01;11.2;;;5.7;;
62457;SDS011;48509;52.122;5.250;2023-03-12T03:06:14;9.5;;;5.9;;
62457;SDS011;48509;52.122;5.250;2023-03-12T03:07:51;11.2;;;5.5;;
62457;SDS011;48509;52.122;5.250;2023-03-12T03:09:27;10.7;;;5.6;;
62457;SDS011;48509;52.122;5.250;2023-03-12T03:12:40;12.8;;;5.5;;
62457;SDS011;48509;52.122;5.250;2023-03-12T03:14:16;13.0;;;6.5;;
62457;SDS011;48509;52.122;5.250;2023-03-12T03:15:54;10.0;;;5.5;;
62457;SDS011;48509;52.122;5.250;2023-03-12T03:17:30;10.8;;;5.6;;
62457;SDS011;48509;52.122;5.250;2023-03-12T03:20:43;12.4;;;5.6;;
62457;SDS011;48509;52.122;5.250;2023-03-12T03:22:20;12.2;;;5.4;;
62457;SDS011;48509;52.122;5.250;2023-03-12T03:23:57;16.4;;;6.2;;
62457;SDS011;48509;52.122;5.250;2023-03-12T03:27:09;9.21;;;5.2;;
62457;SDS011;48509;52.122;5.250;2023-03-12T03:28:46;14.7;;;5.6;;
62457;SDS011;48509;52.122;5.250;2023-03-12T03:30:24;12.5;;;5.0;;
62457;SDS011;48509;52.122;5.250;2023-03-12T03:32:00;10.0;;;5.2;;
62457;SDS011;48509;52.122;5.250;2023-03-12T03:35:14;11.5;;;5.5;;
62457;SDS011;48509;52.122;5.250;2023-03-12T03:36:51;12.2;;;5.3;;
62457;SDS011;48509;52.122;5.250;2023-03-12T03:38:29;12.2;;;5.3;;
62457;SDS011;48509;52.122;5.250;2023-03-12T03:41:46;13.7;;;5.4;;
62457;SDS011;48509;52.122;5.250;2023-03-12T03:43:24;12.4;;;5.2;;
62457;SDS011;48509;52.122;5.250;2023-03-12T03:45:01;11.9;;;5.2;;
62457;SDS011;48509;52.122;5.250;2023-03-12T03:46:38;9.9;;;5.2;;
62457;SDS011;48509;52.122;5.250;2023-03-12T03:49:51;11.8;;;5.2;;
62457;SDS011;48509;52.122;5.250;2023-03-12T03:51:27;10.6;;;5.11;;
62457;SDS011;48509;52.122;5.250;2023-03-12T03:53:04;12.1;;;5.3;;
62457;SDS011;48509;52.122;5.250;2023-03-12T03:56:19;12.2;;;5.2;;
62457;SDS011;48509;52.122;5.250;2023-03-12T03:57:56;14.0;;;5.3;;
62457;SDS011;48509;52.122;5.250;2023-03-12T03:59:32;9.71;;;5.2;;
62457;SDS011;48509;52.122;5.250;2023-03-12T04:02:47;10.5;;;4.91;;
62457;SDS011;48509;52.122;5.250;2023-03-12T04:04:23;11.2;;;5.3;;
62457;SDS011;48509;52.122;5.250;2023-03-12T04:06:00;9.6;;;5.2;;
62457;SDS011;48509;52.122;5.250;2023-03-12T04:07:39;11.2;;;5.4;;
62457;SDS011;48509;52.122;5.250;2023-03-12T04:10:51;10.7;;;5.5;;
62457;SDS011;48509;52.122;5.250;2023-03-12T04:12:28;13.8;;;5.6;;
62457;SDS011;48509;52.122;5.250;2023-03-12T04:14:05;9.81;;;5.3;;
62457;SDS011;48509;52.122;5.250;2023-03-12T04:17:21;9.4;;;5.0;;
62457;SDS011;48509;52.122;5.250;2023-03-12T04:18:58;12.8;;;5.8;;
62457;SDS011;48509;52.122;5.250;2023-03-12T04:20:35;13.9;;;5.9;;
62457;SDS011;48509;52.122;5.250;2023-03-12T04:23:47;11.9;;;5.4;;
62457;SDS011;48509;52.122;5.250;2023-03-12T04:25:23;10.4;;;5.11;;
62457;SDS011;48509;52.122;5.250;2023-03-12T04:26:59;10.4;;;5.3;;
62457;SDS011;48509;52.122;5.250;2023-03-12T04:28:35;10.3;;;5.6;;
62457;SDS011;48509;52.122;5.250;2023-03-12T04:31:49;18.41;;;5.9;;
62457;SDS011;48509;52.122;5.250;2023-03-12T04:33:25;12.6;;;5.7;;
62457;SDS011;48509;52.122;5.250;2023-03-12T04:35:02;11.1;;;5.4;;
62457;SDS011;48509;52.122;5.250;2023-03-12T04:38:16;10.21;;;5.3;;
62457;SDS011;48509;52.122;5.250;2023-03-12T04:39:53;10.1;;;5.5;;
62457;SDS011;48509;52.122;5.250;2023-03-12T04:41:29;10.8;;;6.0;;
62457;SDS011;48509;52.122;5.250;2023-03-12T04:44:42;9.1;;;5.6;;
62457;SDS011;48509;52.122;5.250;2023-03-12T04:46:18;13.2;;;5.9;;
62457;SDS011;48509;52.122;5.250;2023-03-12T04:47:54;12.7;;;6.4;;
62457;SDS011;48509;52.122;5.250;2023-03-12T04:49:30;12.2;;;6.2;;
62457;SDS011;48509;52.122;5.250;2023-03-12T04:52:42;13.4;;;6.2;;
62457;SDS011;48509;52.122;5.250;2023-03-12T04:54:19;13.6;;;6.0;;
62457;SDS011;48509;52.122;5.250;2023-03-12T04:55:56;11.4;;;5.9;;
62457;SDS011;48509;52.122;5.250;2023-03-12T04:59:08;13.9;;;6.6;;
62457;SDS011;48509;52.122;5.250;2023-03-12T05:00:44;11.5;;;6.2;;
62457;SDS011;48509;52.122;5.250;2023-03-12T05:02:22;15.4;;;6.9;;
62457;SDS011;48509;52.122;5.250;2023-03-12T05:05:36;14.4;;;6.7;;
62457;SDS011;48509;52.122;5.250;2023-03-12T05:07:12;10.8;;;6.6;;
62457;SDS011;48509;52.122;5.250;2023-03-12T05:08:50;13.8;;;6.5;;
62457;SDS011;48509;52.122;5.250;2023-03-12T05:10:27;12.0;;;6.6;;
62457;SDS011;48509;52.122;5.250;2023-03-12T05:13:40;12.4;;;6.9;;
62457;SDS011;48509;52.122;5.250;2023-03-12T05:15:18;12.5;;;5.9;;
62457;SDS011;48509;52.122;5.250;2023-03-12T05:16:55;10.8;;;5.8;;
62457;SDS011;48509;52.122;5.250;2023-03-12T05:20:09;16.9;;;6.8;;
62457;SDS011;48509;52.122;5.250;2023-03-12T05:21:47;11.1;;;5.8;;
62457;SDS011;48509;52.122;5.250;2023-03-12T05:23:23;11.1;;;5.8;;
62457;SDS011;48509;52.122;5.250;2023-03-12T05:25:00;11.5;;;5.9;;
62457;SDS011;48509;52.122;5.250;2023-03-12T05:28:14;12.1;;;5.9;;
62457;SDS011;48509;52.122;5.250;2023-03-12T05:29:50;10.21;;;6.0;;
62457;SDS011;48509;52.122;5.250;2023-03-12T05:31:27;14.5;;;6.5;;
62457;SDS011;48509;52.122;5.250;2023-03-12T05:34:40;12.6;;;5.5;;
62457;SDS011;48509;52.122;5.250;2023-03-12T05:36:18;12.0;;;6.1;;
62457;SDS011;48509;52.122;5.250;2023-03-12T05:37:55;10.7;;;6.0;;
62457;SDS011;48509;52.122;5.250;2023-03-12T05:41:08;10.4;;;5.5;;
62457;SDS011;48509;52.122;5.250;2023-03-12T05:42:54;9.4;;;5.3;;
62457;SDS011;48509;52.122;5.250;2023-03-12T05:44:30;11.6;;;5.5;;
62457;SDS011;48509;52.122;5.250;2023-03-12T05:46:06;11.0;;;5.2;;
62457;SDS011;48509;52.122;5.250;2023-03-12T05:49:21;13.5;;;6.1;;
62457;SDS011;48509;52.122;5.250;2023-03-12T05:50:57;13.5;;;6.1;;
62457;SDS011;48509;52.122;5.250;2023-03-12T05:52:33;8.81;;;5.5;;
62457;SDS011;48509;52.122;5.250;2023-03-12T05:55:45;13.5;;;5.9;;
62457;SDS011;48509;52.122;5.250;2023-03-12T05:57:21;13.5;;;5.7;;
62457;SDS011;48509;52.122;5.250;2023-03-12T05:58:57;11.6;;;6.3;;
62457;SDS011;48509;52.122;5.250;2023-03-12T06:00:34;11.8;;;6.3;;
62457;SDS011;48509;52.122;5.250;2023-03-12T06:03:47;10.3;;;6.0;;
62457;SDS011;48509;52.122;5.250;2023-03-12T06:05:24;12.9;;;6.9;;
62457;SDS011;48509;52.122;5.250;2023-03-12T06:07:00;14.8;;;6.3;;
62457;SDS011;48509;52.122;5.250;2023-03-12T06:10:13;12.2;;;6.0;;
62457;SDS011;48509;52.122;5.250;2023-03-12T06:11:50;10.5;;;6.3;;
62457;SDS011;48509;52.122;5.250;2023-03-12T06:13:27;17.2;;;7.0;;
62457;SDS011;48509;52.122;5.250;2023-03-12T06:16:40;13.7;;;6.4;;
62457;SDS011;48509;52.122;5.250;2023-03-12T06:18:16;13.7;;;6.4;;
62457;SDS011;48509;52.122;5.250;2023-03-12T06:19:52;10.6;;;6.8;;
62457;SDS011;48509;52.122;5.250;2023-03-12T06:21:29;17.3;;;7.9;;
62457;SDS011;48509;52.122;5.250;2023-03-12T06:24:43;12.9;;;7.2;;
62457;SDS011;48509;52.122;5.250;2023-03-12T06:26:20;13.1;;;6.6;;
62457;SDS011;48509;52.122;5.250;2023-03-12T06:27:58;16.9;;;8.31;;
62457;SDS011;48509;52.122;5.250;2023-03-12T06:31:10;15.1;;;8.31;;
62457;SDS011;48509;52.122;5.250;2023-03-12T06:32:46;13.5;;;7.4;;
62457;SDS011;48509;52.122;5.250;2023-03-12T06:34:23;17.11;;;7.8;;
62457;SDS011;48509;52.122;5.250;2023-03-12T06:37:39;16.4;;;8.4;;
62457;SDS011;48509;52.122;5.250;2023-03-12T06:39:16;14.6;;;8.81;;
62457;SDS011;48509;52.122;5.250;2023-03-12T06:40:53;18.61;;;8.9;;
62457;SDS011;48509;52.122;5.250;2023-03-12T06:42:31;13.2;;;7.3;;
62457;SDS011;48509;52.122;5.250;2023-03-12T06:45:44;16.61;;;8.81;;
62457;SDS011;48509;52.122;5.250;2023-03-12T06:47:20;17.41;;;8.0;;
62457;SDS011;48509;52.122;5.250;2023-03-12T06:48:56;13.7;;;8.0;;
62457;SDS011;48509;52.122;5.250;2023-03-12T06:52:08;19.11;;;10.5;;
62457;SDS011;48509;52.122;5.250;2023-03-12T06:53:46;14.3;;;8.81;;
62457;SDS011;48509;52.122;5.250;2023-03-12T06:55:22;20.5;;;11.5;;
62457;SDS011;48509;52.122;5.250;2023-03-12T06:58:34;13.7;;;8.81;;
62457;SDS011;48509;52.122;5.250;2023-03-12T07:00:11;19.8;;;11.9;;
62457;SDS011;48509;52.122;5.250;2023-03-12T07:01:48;15.1;;;9.31;;
62457;SDS011;48509;52.122;5.250;2023-03-12T07:03:24;17.41;;;9.5;;
62457;SDS011;48509;52.122;5.250;2023-03-12T07:06:37;16.61;;;8.5;;
62457;SDS011;48509;52.122;5.250;2023-03-12T07:08:13;15.0;;;9.4;;
62457;SDS011;48509;52.122;5.250;2023-03-12T07:09:50;20.41;;;10.6;;
62457;SDS011;48509;52.122;5.250;2023-03-12T07:13:02;18.0;;;9.5;;
62457;SDS011;48509;52.122;5.250;2023-03-12T07:14:38;14.7;;;8.71;;
62457;SDS011;48509;52.122;5.250;2023-03-12T07:16:15;15.2;;;9.6;;
62457;SDS011;48509;52.122;5.250;2023-03-12T07:19:27;16.11;;;9.31;;
62457;SDS011;48509;52.122;5.250;2023-03-12T07:21:04;21.3;;;12.1;;
62457;SDS011;48509;52.122;5.250;2023-03-12T07:22:41;17.5;;;10.7;;
62457;SDS011;48509;52.122;5.250;2023-03-12T07:24:17;25.5;;;13.4;;
62457;SDS011;48509;52.122;5.250;2023-03-12T07:27:29;19.2;;;12.2;;
62457;SDS011;48509;52.122;5.250;2023-03-12T07:29:06;21.9;;;14.8;;
62457;SDS011;48509;52.122;5.250;2023-03-12T07:30:42;19.91;;;12.9;;
62457;SDS011;48509;52.122;5.250;2023-03-12T07:33:55;17.2;;;10.21;;
62457;SDS011;48509;52.122;5.250;2023-03-12T07:35:32;19.8;;;13.1;;
62457;SDS011;48509;52.122;5.250;2023-03-12T07:37:09;18.11;;;10.5;;
62457;SDS011;48509;52.122;5.250;2023-03-12T07:40:21;29.8;;;19.11;;
62457;SDS011;48509;52.122;5.250;2023-03-12T07:41:57;19.41;;;13.1;;
62457;SDS011;48509;52.122;5.250;2023-03-12T07:43:34;19.0;;;11.4;;
62457;SDS011;48509;52.122;5.250;2023-03-12T07:45:10;21.7;;;14.0;;
62457;SDS011;48509;52.122;5.250;2023-03-12T07:48:22;26.0;;;16.61;;
62457;SDS011;48509;52.122;5.250;2023-03-12T07:49:58;24.6;;;15.6;;
62457;SDS011;48509;52.122;5.250;2023-03-12T07:51:33;24.8;;;15.4;;
62457;SDS011;48509;52.122;5.250;2023-03-12T07:54:46;16.9;;;11.7;;
62457;SDS011;48509;52.122;5.250;2023-03-12T07:56:22;24.7;;;16.61;;
62457;SDS011;48509;52.122;5.250;2023-03-12T07:57:58;26.7;;;14.7;;
62457;SDS011;48509;52.122;5.250;2023-03-12T08:01:10;24.1;;;14.9;;
62457;SDS011;48509;52.122;5.250;2023-03-12T08:02:46;21.9;;;13.2;;
62457;SDS011;48509;52.122;5.250;2023-03-12T08:04:23;23.0;;;16.61;;
62457;SDS011;48509;52.122;5.250;2023-03-12T08:07:37;21.4;;;15.9;;
62457;SDS011;48509;52.122;5.250;2023-03-12T08:09:13;23.5;;;15.6;;
62457;SDS011;48509;52.122;5.250;2023-03-12T08:10:50;23.5;;;15.6;;
62457;SDS011;48509;52.122;5.250;2023-03-12T08:12:27;20.2;;;16.5;;
62457;SDS011;48509;52.122;5.250;2023-03-12T08:15:42;17.11;;;12.3;;
62457;SDS011;48509;52.122;5.250;2023-03-12T08:17:19;29.2;;;21.4;;
62457;SDS011;48509;52.122;5.250;2023-03-12T08:18:56;31.9;;;20.6;;
62457;SDS011;48509;52.122;5.250;2023-03-12T08:22:09;31.6;;;21.7;;
62457;SDS011;48509;52.122;5.250;2023-03-12T08:23:46;22.6;;;18.0;;
62457;SDS011;48509;52.122;5.250;2023-03-12T08:25:23;27.5;;;18.5;;
62457;SDS011;48509;52.122;5.250;2023-03-12T08:27:01;27.0;;;18.3;;
62457;SDS011;48509;52.122;5.250;2023-03-12T08:30:13;35.21;;;22.7;;
62457;SDS011;48509;52.122;5.250;2023-03-12T08:31:50;28.9;;;21.6;;
62457;SDS011;48509;52.122;5.250;2023-03-12T08:33:27;33.0;;;23.0;;
62457;SDS011;48509;52.122;5.250;2023-03-12T08:36:41;32.5;;;23.3;;
62457;SDS011;48509;52.122;5.250;2023-03-12T08:38:18;30.8;;;21.2;;
62457;SDS011;48509;52.122;5.250;2023-03-12T08:39:55;20.41;;;17.0;;
62457;SDS011;48509;52.122;5.250;2023-03-12T08:43:07;27.7;;;21.1;;
62457;SDS011;48509;52.122;5.250;2023-03-12T08:44:44;20.5;;;16.9;;
62457;SDS011;48509;52.122;5.250;2023-03-12T08:46:20;20.11;;;16.5;;
62457;SDS011;48509;52.122;5.250;2023-03-12T08:47:56;37.4;;;28.6;;
62457;SDS011;48509;52.122;5.250;2023-03-12T08:51:08;32.4;;;25.4;;
62457;SDS011;48509;52.122;5.250;2023-03-12T08:52:45;27.5;;;21.2;;
62457;SDS011;48509;52.122;5.250;2023-03-12T08:54:22;37.21;;;27.7;;
62457;SDS011;48509;52.122;5.250;2023-03-12T08:57:36;38.1;;;30.5;;
62457;SDS011;48509;52.122;5.250;2023-03-12T08:59:13;31.7;;;24.1;;
62457;SDS011;48509;52.122;5.250;2023-03-12T09:00:49;39.1;;;30.8;;
62457;SDS011;48509;52.122;5.250;2023-03-12T09:04:02;25.9;;;21.5;;
62457;SDS011;48509;52.122;5.250;2023-03-12T09:05:39;39.81;;;31.5;;
62457;SDS011;48509;52.122;5.250;2023-03-12T09:07:16;31.1;;;24.5;;
62457;SDS011;48509;52.122;5.250;2023-03-12T09:08:53;31.1;;;24.5;;
62457;SDS011;48509;52.122;5.250;2023-03-12T09:12:05;36.4;;;29.2;;
62457;SDS011;48509;52.122;5.250;2023-03-12T09:13:42;32.3;;;24.9;;
62457;SDS011;48509;52.122;5.250;2023-03-12T09:15:19;31.1;;;24.1;;
62457;SDS011;48509;52.122;5.250;2023-03-12T09:18:33;38.9;;;28.4;;
62457;SDS011;48509;52.122;5.250;2023-03-12T09:20:10;34.31;;;27.9;;
62457;SDS011;48509;52.122;5.250;2023-03-12T09:21:47;42.0;;;30.7;;
62457;SDS011;48509;52.122;5.250;2023-03-12T09:25:01;45.1;;;32.8;;
62457;SDS011;48509;52.122;5.250;2023-03-12T09:26:38;40.9;;;28.5;;
62457;SDS011;48509;52.122;5.250;2023-03-12T09:28:15;28.7;;;23.0;;
62457;SDS011;48509;52.122;5.250;2023-03-12T09:29:52;33.4;;;25.3;;
62457;SDS011;48509;52.122;5.250;2023-03-12T09:33:05;42.2;;;28.9;;
62457;SDS011;48509;52.122;5.250;2023-03-12T09:34:42;40.1;;;30.1;;
62457;SDS011;48509;52.122;5.250;2023-03-12T09:36:18;46.5;;;33.5;;
62457;SDS011;48509;52.122;5.250;2023-03-12T09:39:32;37.9;;;28.9;;
62457;SDS011;48509;52.122;5.250;2023-03-12T09:41:14;52.9;;;36.81;;
62457;SDS011;48509;52.122;5.250;2023-03-12T09:42:55;55.1;;;37.5;;
62457;SDS011;48509;52.122;5.250;2023-03-12T09:44:34;48.8;;;33.3;;
62457;SDS011;48509;52.122;5.250;2023-03-12T09:47:59;58.6;;;40.31;;
62457;SDS011;48509;52.122;5.250;2023-03-12T09:49:39;42.9;;;32.3;;
62457;SDS011;48509;52.122;5.250;2023-03-12T09:51:21;58.3;;;38.81;;
62457;SDS011;48509;52.122;5.250;2023-03-12T09:53:03;42.0;;;30.0;;
62457;SDS011;48509;52.122;5.250;2023-03-12T09:56:33;52.9;;;37.71;;
62457;SDS011;48509;52.122;5.250;2023-03-12T09:58:11;42.0;;;30.8;;
62457;SDS011;48509;52.122;5.250;2023-03-12T09:59:52;45.6;;;33.21;;
62457;SDS011;48509;52.122;5.250;2023-03-12T10:01:31;59.1;;;39.9;;
62457;SDS011;48509;52.122;5.250;2023-03-12T10:03:18;43.2;;;34.21;;
62457;SDS011;48509;52.122;5.250;2023-03-12T10:06:51;46.0;;;33.1;;
62457;SDS011;48509;52.122;5.250;2023-03-12T10:08:38;46.8;;;33.8;;
62457;SDS011;48509;52.122;5.250;2023-03-12T10:10:33;47.5;;;35.4;;
62457;SDS011;48509;52.122;5.250;2023-03-12T10:12:22;47.1;;;33.5;;
62457;SDS011;48509;52.122;5.250;2023-03-12T10:14:14;46.1;;;32.0;;
62457;SDS011;48509;52.122;5.250;2023-03-12T10:16:02;46.8;;;32.4;;
62457;SDS011;48509;52.122;5.250;2023-03-12T10:19:41;43.8;;;34.0;;
62457;SDS011;48509;52.122;5.250;2023-03-12T10:21:34;64.5;;;43.2;;
62457;SDS011;48509;52.122;5.250;2023-03-12T10:23:24;50.8;;;37.21;;
62457;SDS011;48509;52.122;5.250;2023-03-12T10:25:11;44.4;;;33.8;;
62457;SDS011;48509;52.122;5.250;2023-03-12T10:26:57;39.4;;;29.2;;
62457;SDS011;48509;52.122;5.250;2023-03-12T10:28:35;56.0;;;40.1;;
62457;SDS011;48509;52.122;5.250;2023-03-12T10:31:59;58.1;;;39.31;;
62457;SDS011;48509;52.122;5.250;2023-03-12T10:33:41;49.6;;;36.9;;
62457;SDS011;48509;52.122;5.250;2023-03-12T10:35:23;48.9;;;35.71;;
62457;SDS011;48509;52.122;5.250;2023-03-12T10:37:04;41.3;;;30.6;;
62457;SDS011;48509;52.122;5.250;2023-03-12T10:38:54;39.81;;;30.3;;
62457;SDS011;48509;52.122;5.250;2023-03-12T10:42:12;39.1;;;29.5;;
62457;SDS011;48509;52.122;5.250;2023-03-12T10:43:51;57.7;;;38.4;;
62457;SDS011;48509;52.122;5.250;2023-03-12T10:45:30;50.1;;;34.21;;
62457;SDS011;48509;52.122;5.250;2023-03-12T10:47:18;40.1;;;30.1;;
62457;SDS011;48509;52.122;5.250;2023-03-12T10:51:13;34.81;;;25.3;;
62457;SDS011;48509;52.122;5.250;2023-03-12T10:52:49;42.0;;;26.0;;
62457;SDS011;48509;52.122;5.250;2023-03-12T10:54:46;41.2;;;26.8;;
62457;SDS011;48509;52.122;5.250;2023-03-12T10:56:25;38.4;;;24.3;;
62457;SDS011;48509;52.122;5.250;2023-03-12T10:58:01;36.5;;;23.3;;
62457;SDS011;48509;52.122;5.250;2023-03-12T11:01:19;39.9;;;23.1;;
62457;SDS011;48509;52.122;5.250;2023-03-12T11:02:58;50.6;;;29.7;;
62457;SDS011;48509;52.122;5.250;2023-03-12T11:04:36;37.31;;;19.91;;
62457;SDS011;48509;52.122;5.250;2023-03-12T11:06:19;53.6;;;28.4;;
62457;SDS011;48509;52.122;5.250;2023-03-12T11:09:36;42.2;;;21.9;;
62457;SDS011;48509;52.122;5.250;2023-03-12T11:11:13;38.4;;;20.2;;
62457;SDS011;48509;52.122;5.250;2023-03-12T11:13:26;39.1;;;18.8;;
62457;SDS011;48509;52.122;5.250;2023-03-12T11:15:22;54.6;;;24.8;;
62457;SDS011;48509;52.122;5.250;2023-03-12T11:17:16;57.1;;;27.8;;
62457;SDS011;48509;52.122;5.250;2023-03-12T11:18:56;41.3;;;19.41;;
62457;SDS011;48509;52.122;5.250;2023-03-12T11:20:35;45.2;;;17.61;;
62457;SDS011;48509;52.122;5.250;2023-03-12T11:24:07;46.9;;;18.3;;
62457;SDS011;48509;52.122;5.250;2023-03-12T11:25:49;47.9;;;20.5;;
62457;SDS011;48509;52.122;5.250;2023-03-12T11:27:30;65.91;;;23.5;;
62457;SDS011;48509;52.122;5.250;2023-03-12T11:29:21;42.0;;;18.3;;
62457;SDS011;48509;52.122;5.250;2023-03-12T11:32:44;49.1;;;20.0;;
62457;SDS011;48509;52.122;5.250;2023-03-12T11:34:23;42.9;;;14.8;;
62457;SDS011;48509;52.122;5.250;2023-03-12T11:36:07;44.7;;;15.2;;
62457;SDS011;48509;52.122;5.250;2023-03-12T11:37:59;39.0;;;14.7;;
62457;SDS011;48509;52.122;5.250;2023-03-12T11:39:47;46.3;;;16.3;;
62457;SDS011;48509;52.122;5.250;2023-03-12T11:41:45;53.2;;;17.41;;
62457;SDS011;48509;52.122;5.250;2023-03-12T11:45:30;42.5;;;16.7;;
62457;SDS011;48509;52.122;5.250;2023-03-12T11:47:22;50.0;;;16.61;;
62457;SDS011;48509;52.122;5.250;2023-03-12T11:49:14;54.8;;;15.3;;
62457;SDS011;48509;52.122;5.250;2023-03-12T11:51:06;41.8;;;12.5;;
62457;SDS011;48509;52.122;5.250;2023-03-12T11:52:59;41.6;;;12.7;;
62457;SDS011;48509;52.122;5.250;2023-03-12T11:55:20;40.9;;;11.6;;
62457;SDS011;48509;52.122;5.250;2023-03-12T11:57:15;43.7;;;12.5;;
62457;SDS011;48509;52.122;5.250;2023-03-12T11:59:11;38.0;;;10.6;;
62457;SDS011;48509;52.122;5.250;2023-03-12T12:01:15;42.0;;;10.9;;
62457;SDS011;48509;52.122;5.250;2023-03-12T12:03:18;44.6;;;10.7;;
62457;SDS011;48509;52.122;5.250;2023-03-12T12:06:08;43.3;;;11.4;;
62457;SDS011;48509;52.122;5.250;2023-03-12T12:08:08;44.0;;;12.2;;
62457;SDS011;48509;52.122;5.250;2023-03-12T12:09:57;42.4;;;9.81;;
62457;SDS011;48509;52.122;5.250;2023-03-12T12:11:48;40.5;;;10.6;;
62457;SDS011;48509;52.122;5.250;2023-03-12T12:13:39;33.71;;;9.4;;
62457;SDS011;48509;52.122;5.250;2023-03-12T12:15:30;43.1;;;10.21;;
62457;SDS011;48509;52.122;5.250;2023-03-12T12:17:16;40.71;;;10.3;;
62457;SDS011;48509;52.122;5.250;2023-03-12T12:20:57;38.6;;;9.4;;
62457;SDS011;48509;52.122;5.250;2023-03-12T12:22:45;41.3;;;10.9;;
62457;SDS011;48509;52.122;5.250;2023-03-12T12:24:36;45.0;;;11.3;;
62457;SDS011;48509;52.122;5.250;2023-03-12T12:26:25;59.0;;;10.1;;
62457;SDS011;48509;52.122;5.250;2023-03-12T12:28:16;49.2;;;11.0;;
62457;SDS011;48509;52.122;5.250;2023-03-12T12:30:16;43.2;;;10.21;;
62457;SDS011;48509;52.122;5.250;2023-03-12T12:32:03;48.3;;;10.6;;
62457;SDS011;48509;52.122;5.250;2023-03-12T12:35:44;43.3;;;9.81;;
62457;SDS011;48509;52.122;5.250;2023-03-12T12:37:22;39.6;;;9.5;;
62457;SDS011;48509;52.122;5.250;2023-03-12T12:39:10;49.5;;;10.8;;
62457;SDS011;48509;52.122;5.250;2023-03-12T12:40:52;45.3;;;10.3;;
62457;SDS011;48509;52.122;5.250;2023-03-12T12:42:35;49.7;;;10.6;;